createdAt,value
2023-02-02T00:02:08.154Z,65.80
2023-02-02T00:04:38.520Z,66.47
2023-02-02T00:07:09.922Z,66.59
2023-02-02T00:09:40.251Z,65.92
2023-02-02T00:12:11.671Z,66.34
2023-02-02T00:14:42.401Z,67.14
2023-02-02T00:17:13.656Z,67.44
2023-02-02T00:19:47.644Z,67.08
2023-02-02T00:22:20.534Z,67.04
2023-02-02T00:24:50.754Z,67.07
2023-02-02T00:27:23.453Z,66.73
2023-02-02T00:29:54.697Z,66.57
2023-02-02T00:32:25.922Z,66.93
2023-02-02T00:34:59.357Z,66.68
2023-02-02T00:37:30.017Z,66.84
2023-02-02T00:40:00.768Z,67.04
2023-02-02T00:42:32.266Z,67.07
2023-02-02T00:45:18.790Z,66.93
2023-02-02T00:47:50.745Z,66.70
2023-02-02T00:50:22.917Z,66.44
2023-02-02T00:52:54.199Z,65.42
2023-02-02T00:55:25.188Z,65.31
2023-02-02T00:57:56.039Z,64.82
2023-02-02T01:00:28.168Z,64.73
2023-02-02T01:03:05.207Z,64.22
2023-02-02T01:05:38.523Z,63.60
2023-02-02T01:08:09.478Z,63.20
2023-02-02T01:10:40.506Z,63.25
2023-02-02T01:13:10.913Z,62.55
2023-02-02T01:15:41.504Z,62.16
2023-02-02T01:18:12.278Z,61.72
2023-02-02T01:20:42.978Z,60.52
2023-02-02T01:23:16.595Z,60.38
2023-02-02T01:25:47.854Z,59.64
2023-02-02T01:28:18.516Z,59.32
2023-02-02T01:30:49.932Z,59.39
2023-02-02T01:33:20.732Z,58.84
2023-02-02T01:35:57.426Z,58.71
2023-02-02T01:38:27.952Z,58.49
2023-02-02T01:40:59.360Z,57.99
2023-02-02T01:43:50.456Z,57.89
2023-02-02T01:46:24.313Z,58.15
2023-02-02T01:49:18.244Z,57.94
2023-02-02T01:52:07.903Z,57.65
2023-02-02T01:54:45.616Z,57.75
2023-02-02T01:57:24.937Z,56.99
2023-02-02T01:59:57.036Z,56.72
2023-02-02T02:02:28.977Z,55.52
2023-02-02T02:05:02.986Z,55.35
2023-02-02T02:07:33.857Z,55.17
2023-02-02T02:10:04.434Z,54.86
2023-02-02T02:12:35.729Z,54.46
2023-02-02T02:15:26.587Z,54.92
2023-02-02T02:18:13.367Z,54.91
2023-02-02T02:21:23.155Z,54.55
2023-02-02T02:24:42.859Z,54.47
2023-02-02T02:27:43.440Z,54.68
2023-02-02T02:30:17.269Z,54.80
2023-02-02T02:33:15.156Z,54.71
2023-02-02T02:36:06.939Z,54.38
2023-02-02T02:38:44.729Z,54.57
2023-02-02T02:41:23.639Z,54.26
2023-02-02T02:44:00.733Z,54.22
2023-02-02T02:46:32.561Z,53.31
2023-02-02T02:49:04.122Z,52.72
2023-02-02T02:51:54.621Z,53.35
2023-02-02T02:54:44.158Z,52.96
2023-02-02T02:57:36.285Z,52.89
2023-02-02T03:00:28.394Z,52.80
2023-02-02T03:03:16.316Z,52.64
2023-02-02T03:05:56.251Z,52.69
2023-02-02T03:08:42.551Z,52.24
2023-02-02T03:11:15.672Z,52.27
2023-02-02T03:13:46.330Z,52.16
2023-02-02T03:16:18.414Z,52.46
2023-02-02T03:18:48.929Z,52.44
2023-02-02T03:21:21.939Z,51.76
2023-02-02T03:23:52.563Z,52.10
2023-02-02T03:26:23.759Z,52.13
2023-02-02T03:28:56.228Z,52.17
2023-02-02T03:31:31.803Z,51.36
2023-02-02T03:34:02.765Z,51.62
2023-02-02T03:36:33.935Z,51.33
2023-02-02T03:39:04.913Z,51.18
2023-02-02T03:41:35.945Z,51.14
2023-02-02T03:44:07.005Z,50.90
2023-02-02T03:46:37.821Z,50.38
2023-02-02T03:49:08.607Z,50.15
2023-02-02T03:51:40.370Z,49.93
2023-02-02T03:54:12.085Z,49.80
2023-02-02T03:56:43.607Z,49.20
2023-02-02T03:59:14.865Z,49.53
2023-02-02T04:01:45.658Z,49.79
2023-02-02T04:04:16.751Z,49.17
2023-02-02T04:06:51.220Z,49.84
2023-02-02T04:09:22.339Z,51.74
2023-02-02T04:11:52.802Z,52.46
2023-02-02T04:14:23.377Z,52.81
2023-02-02T04:16:54.482Z,53.65
2023-02-02T04:19:25.084Z,54.13
2023-02-02T04:21:56.179Z,54.67
2023-02-02T04:24:27.927Z,55.04
2023-02-02T04:26:58.631Z,55.09
2023-02-02T04:29:30.750Z,55.13
2023-02-02T04:32:01.633Z,54.91
2023-02-02T04:34:34.909Z,55.06
2023-02-02T04:37:05.385Z,55.26
2023-02-02T04:39:35.975Z,54.66
2023-02-02T04:42:08.420Z,54.81
2023-02-02T04:44:39.103Z,54.81
2023-02-02T04:47:10.162Z,54.78
2023-02-02T04:49:44.379Z,54.59
2023-02-02T04:52:15.507Z,55.06
2023-02-02T04:54:46.577Z,55.31
2023-02-02T04:57:17.110Z,54.87
2023-02-02T04:59:48.100Z,54.77
2023-02-02T05:02:18.926Z,54.96
2023-02-02T05:04:49.453Z,55.37
2023-02-02T05:07:29.861Z,55.54
2023-02-02T05:10:01.172Z,55.57
2023-02-02T05:12:32.311Z,55.59
2023-02-02T05:15:04.459Z,55.07
2023-02-02T05:17:34.830Z,55.19
2023-02-02T05:20:06.436Z,54.85
2023-02-02T05:22:36.912Z,54.90
2023-02-02T05:25:08.881Z,54.52
2023-02-02T05:27:39.812Z,54.38
2023-02-02T05:30:14.862Z,54.75
2023-02-02T05:32:47.076Z,54.70
2023-02-02T05:35:17.828Z,54.10
2023-02-02T05:37:48.878Z,54.33
2023-02-02T05:40:19.751Z,54.71
2023-02-02T05:42:53.151Z,55.23
2023-02-02T05:45:26.844Z,55.76
2023-02-02T05:47:57.754Z,55.75
2023-02-02T05:50:28.476Z,55.57
2023-02-02T05:53:08.014Z,55.75
2023-02-02T05:55:38.762Z,56.29
2023-02-02T05:58:09.565Z,56.04
2023-02-02T06:00:43.449Z,56.00
2023-02-02T06:03:14.784Z,56.01
2023-02-02T06:05:45.828Z,55.97
2023-02-02T06:08:16.414Z,56.26
2023-02-02T06:10:47.485Z,56.22
2023-02-02T06:13:17.925Z,56.24
2023-02-02T06:15:48.441Z,55.82
2023-02-02T06:18:30.892Z,56.24
2023-02-02T06:21:02.567Z,55.97
2023-02-02T06:23:34.951Z,55.59
2023-02-02T06:26:05.809Z,55.92
2023-02-02T06:28:37.121Z,55.70
2023-02-02T06:31:09.613Z,55.30
2023-02-02T06:33:41.247Z,54.87
2023-02-02T06:36:11.718Z,54.66
2023-02-02T06:38:42.734Z,53.94
2023-02-02T06:41:13.864Z,53.94
2023-02-02T06:43:44.280Z,53.56
2023-02-02T06:46:14.886Z,53.03
2023-02-02T06:48:45.314Z,52.96
2023-02-02T06:51:18.559Z,52.98
2023-02-02T06:53:50.538Z,53.51
2023-02-02T06:56:28.432Z,53.01
2023-02-02T06:58:59.303Z,53.49
2023-02-02T07:01:30.199Z,53.29
2023-02-02T07:04:01.022Z,53.36
2023-02-02T07:06:31.928Z,54.13
2023-02-02T07:09:03.568Z,53.95
2023-02-02T07:11:37.354Z,54.06
2023-02-02T07:14:10.387Z,54.66
2023-02-02T07:16:44.403Z,54.85
2023-02-02T07:19:15.241Z,55.34
2023-02-02T07:21:46.615Z,54.86
2023-02-02T07:24:18.038Z,54.92
2023-02-02T07:26:48.626Z,55.12
2023-02-02T07:29:21.614Z,54.79
2023-02-02T07:31:52.809Z,54.66
2023-02-02T07:34:23.823Z,55.21
2023-02-02T07:36:56.422Z,55.04
2023-02-02T07:39:27.232Z,54.95
2023-02-02T07:41:58.236Z,54.33
2023-02-02T07:44:37.757Z,54.39
2023-02-02T07:47:09.271Z,54.50
2023-02-02T07:49:40.027Z,54.12
2023-02-02T07:52:10.486Z,54.14
2023-02-02T07:54:41.038Z,53.56
2023-02-02T07:57:14.124Z,53.81
2023-02-02T07:59:44.760Z,53.46
2023-02-02T08:02:15.232Z,53.20
2023-02-02T08:04:46.386Z,53.62
2023-02-02T08:07:17.635Z,53.90
2023-02-02T08:09:49.508Z,54.55
2023-02-02T08:12:24.883Z,54.67
2023-02-02T08:14:56.744Z,54.15
2023-02-02T08:17:30.489Z,55.12
2023-02-02T08:20:01.291Z,54.71
2023-02-02T08:22:35.676Z,54.64
2023-02-02T08:25:06.670Z,54.65
2023-02-02T08:27:39.159Z,54.66
2023-02-02T08:30:10.871Z,54.78
2023-02-02T08:32:41.384Z,54.79
2023-02-02T08:35:11.889Z,54.78
2023-02-02T08:37:42.686Z,54.88
2023-02-02T08:40:14.292Z,54.78
2023-02-02T08:42:47.190Z,55.16
2023-02-02T08:46:01.996Z,55.20
2023-02-02T08:48:11.977Z,55.13
2023-02-02T08:50:43.008Z,55.20
2023-02-02T08:53:13.589Z,55.03
2023-02-02T08:55:47.040Z,55.28
2023-02-02T08:58:17.690Z,55.45
2023-02-02T09:00:51.755Z,55.69
2023-02-02T09:03:23.520Z,55.58
2023-02-02T09:05:53.917Z,55.56
2023-02-02T09:08:24.641Z,56.07
2023-02-02T09:10:55.772Z,56.80
2023-02-02T09:13:26.897Z,57.30
2023-02-02T09:16:01.937Z,57.22
2023-02-02T09:18:32.690Z,57.26
2023-02-02T09:21:06.382Z,57.07
2023-02-02T09:23:39.428Z,57.05
2023-02-02T09:26:16.284Z,57.47
2023-02-02T09:28:55.642Z,57.95
2023-02-02T09:31:28.123Z,58.40
2023-02-02T09:34:05.315Z,58.76
2023-02-02T09:36:36.160Z,58.76
2023-02-02T09:39:08.496Z,58.80
2023-02-02T09:41:41.845Z,59.13
2023-02-02T09:44:36.672Z,59.23
2023-02-02T09:47:39.487Z,59.42
2023-02-02T09:50:41.539Z,59.98
2023-02-02T09:53:14.932Z,60.67
2023-02-02T09:55:52.254Z,60.68
2023-02-02T09:58:34.472Z,60.94
2023-02-02T10:01:21.820Z,60.70
2023-02-02T10:04:11.765Z,60.54
2023-02-02T10:06:47.918Z,60.41
2023-02-02T10:09:27.448Z,59.97
2023-02-02T10:12:18.813Z,59.24
2023-02-02T10:15:25.356Z,58.09
2023-02-02T10:18:06.208Z,57.62
2023-02-02T10:21:26.353Z,57.02
2023-02-02T10:24:01.282Z,56.56
2023-02-02T10:26:48.431Z,56.46
2023-02-02T10:29:48.016Z,56.67
2023-02-02T10:32:37.951Z,56.54
2023-02-02T10:35:15.001Z,56.81
2023-02-02T10:38:23.898Z,56.61
2023-02-02T10:41:08.888Z,56.58
2023-02-02T10:43:48.532Z,56.89
2023-02-02T10:46:26.605Z,56.55
2023-02-02T10:49:24.477Z,56.57
2023-02-02T10:52:14.808Z,56.59
2023-02-02T10:55:02.891Z,56.71
2023-02-02T10:57:55.537Z,56.89
2023-02-02T11:00:59.283Z,57.03
2023-02-02T11:03:35.782Z,57.46
2023-02-02T11:06:27.741Z,57.49
2023-02-02T11:09:00.468Z,56.79
2023-02-02T11:11:46.386Z,57.03
2023-02-02T11:15:16.937Z,56.89
2023-02-02T11:17:48.778Z,57.09
2023-02-02T11:20:38.134Z,57.56
2023-02-02T11:23:20.146Z,57.44
2023-02-02T11:26:00.566Z,57.03
2023-02-02T11:28:35.733Z,56.93
2023-02-02T11:31:07.240Z,56.46
2023-02-02T11:33:38.439Z,55.93
2023-02-02T11:36:25.409Z,55.82
2023-02-02T11:39:21.850Z,55.29
2023-02-02T11:41:53.138Z,55.26
2023-02-02T11:44:29.736Z,55.08
2023-02-02T11:47:01.706Z,54.96
2023-02-02T11:49:34.914Z,54.71
2023-02-02T11:52:18.346Z,54.76
2023-02-02T11:54:51.796Z,54.54
2023-02-02T11:57:24.134Z,54.53
2023-02-02T12:00:12.717Z,54.80
2023-02-02T12:02:52.314Z,54.60
2023-02-02T12:05:24.676Z,54.35
2023-02-02T12:07:56.077Z,54.42
2023-02-02T12:10:44.953Z,54.76
2023-02-02T12:13:30.403Z,54.48
2023-02-02T12:16:10.479Z,54.53
2023-02-02T12:18:46.785Z,54.74
2023-02-02T12:21:54.930Z,54.52
2023-02-02T12:24:37.602Z,54.83
2023-02-02T12:27:32.548Z,55.10
2023-02-02T12:30:25.556Z,55.14
2023-02-02T12:33:23.101Z,55.58
2023-02-02T12:36:12.724Z,55.53
2023-02-02T12:38:59.230Z,54.91
2023-02-02T12:42:03.406Z,55.22
2023-02-02T12:44:51.697Z,55.23
2023-02-02T12:47:29.650Z,55.12
2023-02-02T12:50:06.642Z,55.43
2023-02-02T12:52:48.230Z,54.80
2023-02-02T12:55:25.522Z,55.05
2023-02-02T12:58:05.195Z,55.89
2023-02-02T13:01:06.203Z,54.84
2023-02-02T13:03:47.273Z,54.76
2023-02-02T13:06:35.163Z,54.56
2023-02-02T13:09:14.360Z,54.40
2023-02-02T13:12:00.009Z,54.52
2023-02-02T13:14:47.137Z,54.68
2023-02-02T13:17:24.081Z,54.24
2023-02-02T13:19:59.966Z,54.08
2023-02-02T13:22:35.746Z,54.97
2023-02-02T13:25:12.086Z,54.22
2023-02-02T13:27:43.652Z,53.67
2023-02-02T13:30:36.011Z,54.74
2023-02-02T13:33:24.824Z,54.57
2023-02-02T13:36:08.105Z,54.44
2023-02-02T13:38:43.125Z,53.32
2023-02-02T13:41:14.468Z,53.35
2023-02-02T13:44:26.128Z,53.59
2023-02-02T13:47:07.768Z,53.53
2023-02-02T13:49:44.250Z,53.81
2023-02-02T13:52:43.070Z,53.18
2023-02-02T13:55:17.533Z,53.43
2023-02-02T13:57:53.199Z,53.46
2023-02-02T14:00:27.825Z,53.35
2023-02-02T14:03:07.425Z,53.80
2023-02-02T14:05:43.432Z,53.58
2023-02-02T14:08:20.215Z,53.26
2023-02-02T14:10:53.539Z,53.84
2023-02-02T14:13:45.401Z,54.01
2023-02-02T14:16:43.935Z,53.94
2023-02-02T14:19:30.370Z,54.12
2023-02-02T14:22:06.962Z,54.41
2023-02-02T14:24:38.434Z,53.89
2023-02-02T14:27:09.388Z,54.15
2023-02-02T14:29:48.550Z,54.32
2023-02-02T14:32:29.379Z,54.08
2023-02-02T14:35:15.906Z,54.21
2023-02-02T14:38:05.869Z,54.26
2023-02-02T14:41:05.722Z,54.26
2023-02-02T14:43:51.939Z,54.42
2023-02-02T14:46:35.709Z,54.63
2023-02-02T14:49:08.035Z,54.21
2023-02-02T14:51:49.442Z,54.33
2023-02-02T14:54:41.867Z,54.51
2023-02-02T14:57:30.180Z,54.51
2023-02-02T15:00:04.729Z,54.15
2023-02-02T15:02:39.559Z,54.13
2023-02-02T15:05:31.658Z,54.19
2023-02-02T15:08:16.926Z,54.58
2023-02-02T15:10:55.551Z,54.07
2023-02-02T15:13:30.422Z,54.20
2023-02-02T15:16:14.899Z,54.33
2023-02-02T15:18:53.819Z,54.49
2023-02-02T15:21:24.797Z,54.15
2023-02-02T15:23:55.968Z,54.29
2023-02-02T15:26:36.239Z,54.36
2023-02-02T15:29:17.941Z,54.42
2023-02-02T15:31:51.287Z,54.45
2023-02-02T15:34:44.215Z,54.80
2023-02-02T15:37:21.560Z,54.43
2023-02-02T15:39:59.119Z,54.62
2023-02-02T15:42:54.840Z,54.75
2023-02-02T15:45:44.281Z,54.84
2023-02-02T15:48:32.201Z,54.84
2023-02-02T15:51:18.703Z,54.92
2023-02-02T15:53:53.246Z,54.89
2023-02-02T15:56:26.038Z,54.58
2023-02-02T15:58:59.593Z,55.07
2023-02-02T16:01:33.927Z,54.84
2023-02-02T16:04:28.221Z,54.78
2023-02-02T16:06:59.148Z,55.03
2023-02-02T16:09:36.095Z,55.00
2023-02-02T16:12:09.929Z,54.63
2023-02-02T16:14:40.964Z,55.33
2023-02-02T16:17:30.087Z,55.46
2023-02-02T16:20:09.448Z,55.86
2023-02-02T16:22:41.303Z,55.90
2023-02-02T16:25:18.076Z,55.85
2023-02-02T16:27:49.639Z,55.96
2023-02-02T16:30:46.875Z,55.71
2023-02-02T16:33:35.467Z,56.05
2023-02-02T16:36:32.911Z,56.11
2023-02-02T16:39:17.148Z,56.34
2023-02-02T16:41:53.026Z,56.53
2023-02-02T16:44:34.219Z,56.35
2023-02-02T16:47:05.359Z,56.63
2023-02-02T16:49:36.118Z,56.80
2023-02-02T16:52:18.468Z,57.01
2023-02-02T16:54:54.462Z,56.63
2023-02-02T16:57:33.971Z,57.19
2023-02-02T17:00:08.448Z,57.19
2023-02-02T17:02:41.129Z,57.37
2023-02-02T17:05:23.263Z,57.31
2023-02-02T17:07:59.500Z,57.51
2023-02-02T17:10:37.463Z,57.34
2023-02-02T17:13:33.277Z,57.72
2023-02-02T17:16:04.560Z,57.77
2023-02-02T17:18:35.196Z,57.13
2023-02-02T17:21:25.120Z,57.94
2023-02-02T17:23:55.521Z,57.64
2023-02-02T17:26:25.913Z,57.80
2023-02-02T17:28:57.622Z,58.03
2023-02-02T17:31:28.490Z,57.61
2023-02-02T17:33:58.866Z,57.73
2023-02-02T17:36:30.217Z,58.16
2023-02-02T17:39:00.555Z,57.96
2023-02-02T17:41:30.973Z,57.81
2023-02-02T17:44:01.800Z,57.71
2023-02-02T17:46:33.379Z,58.06
2023-02-02T17:49:03.966Z,58.18
2023-02-02T17:51:42.050Z,58.25
2023-02-02T17:54:13.817Z,58.65
2023-02-02T17:56:45.021Z,58.94
2023-02-02T17:59:15.277Z,58.74
2023-02-02T18:01:46.635Z,58.67
2023-02-02T18:04:17.675Z,59.38
2023-02-02T18:06:48.046Z,58.98
2023-02-02T18:09:19.105Z,59.39
2023-02-02T18:11:50.819Z,59.44
2023-02-02T18:14:21.526Z,59.38
2023-02-02T18:16:52.106Z,59.79
2023-02-02T18:19:22.295Z,59.74
2023-02-02T18:21:53.223Z,59.94
2023-02-02T18:24:23.377Z,60.18
2023-02-02T18:26:53.921Z,60.96
2023-02-02T18:29:25.153Z,60.56
2023-02-02T18:31:55.727Z,60.57
2023-02-02T18:34:26.920Z,60.35
2023-02-02T18:36:57.266Z,60.36
2023-02-02T18:39:28.299Z,60.58
2023-02-02T18:41:59.716Z,61.12
2023-02-02T18:44:30.522Z,61.12
2023-02-02T18:47:00.934Z,60.84
2023-02-02T18:49:31.786Z,60.67
2023-02-02T18:52:03.336Z,60.52
2023-02-02T18:54:36.596Z,60.71
2023-02-02T18:57:06.825Z,60.87
2023-02-02T18:59:37.328Z,60.28
2023-02-02T19:02:09.528Z,60.31
2023-02-02T19:04:40.364Z,60.38
2023-02-02T19:07:28.996Z,60.57
2023-02-02T19:10:02.209Z,60.49
2023-02-02T19:12:32.798Z,60.84
2023-02-02T19:15:04.394Z,61.20
2023-02-02T19:17:34.807Z,60.78
2023-02-02T19:20:23.462Z,61.07
2023-02-02T19:23:19.427Z,61.23
2023-02-02T19:25:52.321Z,61.13
2023-02-02T19:28:30.106Z,60.80
2023-02-02T19:31:03.006Z,60.91
2023-02-02T19:33:50.292Z,60.47
2023-02-02T19:36:26.302Z,60.41
2023-02-02T19:39:21.182Z,60.52
2023-02-02T19:41:52.491Z,60.64
2023-02-02T19:44:24.727Z,60.74
2023-02-02T19:46:57.655Z,60.74
2023-02-02T19:49:28.293Z,60.58
2023-02-02T19:52:00.386Z,60.72
2023-02-02T19:54:37.644Z,60.56
2023-02-02T19:57:17.043Z,60.65
2023-02-02T19:59:49.958Z,60.31
2023-02-02T20:02:56.686Z,60.35
2023-02-02T20:05:34.836Z,60.65
2023-02-02T20:08:25.061Z,60.75
2023-02-02T20:10:57.702Z,60.36
2023-02-02T20:13:33.914Z,60.91
2023-02-02T20:16:05.962Z,60.32
2023-02-02T20:19:10.822Z,60.71
2023-02-02T20:21:45.260Z,60.72
2023-02-02T20:24:19.961Z,60.58
2023-02-02T20:27:09.772Z,60.42
2023-02-02T20:29:44.415Z,60.24
2023-02-02T20:32:27.448Z,60.52
2023-02-02T20:35:00.176Z,60.60
2023-02-02T20:37:37.601Z,60.39
2023-02-02T20:40:26.751Z,60.29
2023-02-02T20:42:59.285Z,60.28
2023-02-02T20:45:29.974Z,60.69
2023-02-02T20:48:00.719Z,60.43
2023-02-02T20:50:31.032Z,60.63
2023-02-02T20:53:01.618Z,60.85
2023-02-02T20:55:32.480Z,61.19
2023-02-02T20:58:04.667Z,61.15
2023-02-02T21:00:35.393Z,61.22
2023-02-02T21:03:06.627Z,61.27
2023-02-02T21:05:37.950Z,61.24
2023-02-02T21:08:08.458Z,60.79
2023-02-02T21:10:39.156Z,61.25
2023-02-02T21:13:09.915Z,61.08
2023-02-02T21:15:40.553Z,61.39
2023-02-02T21:18:11.272Z,61.53
2023-02-02T21:20:42.200Z,61.25
2023-02-02T21:23:15.431Z,61.43
2023-02-02T21:25:46.024Z,61.71
2023-02-02T21:28:16.400Z,61.80
2023-02-02T21:30:46.847Z,61.52
2023-02-02T21:33:18.453Z,61.94
2023-02-02T21:35:48.860Z,61.60
2023-02-02T21:38:19.354Z,61.61
2023-02-02T21:40:51.042Z,62.11
2023-02-02T21:43:21.496Z,61.67
2023-02-02T21:45:52.658Z,62.22
2023-02-02T21:48:31.184Z,61.88
2023-02-02T21:51:18.035Z,62.32
2023-02-02T21:53:48.526Z,62.06
2023-02-02T21:56:39.892Z,62.00
2023-02-02T21:59:39.451Z,62.20
2023-02-02T22:02:43.330Z,62.28
2023-02-02T22:05:15.171Z,62.59
2023-02-02T22:07:49.300Z,62.33
2023-02-02T22:10:25.376Z,62.28
2023-02-02T22:12:56.306Z,62.75
2023-02-02T22:15:30.672Z,62.64
2023-02-02T22:18:01.365Z,63.05
2023-02-02T22:20:36.760Z,62.98
2023-02-02T22:23:09.806Z,63.26
2023-02-02T22:25:42.279Z,63.11
2023-02-02T22:28:50.699Z,62.70
2023-02-02T22:31:21.062Z,63.00
2023-02-02T22:33:51.656Z,63.08
2023-02-02T22:36:22.401Z,62.79
2023-02-02T22:38:53.618Z,63.22
2023-02-02T22:41:23.838Z,63.06
2023-02-02T22:43:57.524Z,62.85
2023-02-02T22:46:27.941Z,62.84
2023-02-02T22:48:58.525Z,63.10
2023-02-02T22:51:29.548Z,62.81
2023-02-02T22:54:00.425Z,63.08
2023-02-02T22:56:31.231Z,62.86
2023-02-02T22:59:02.643Z,62.82
2023-02-02T23:01:33.191Z,62.86
2023-02-02T23:04:03.575Z,62.58
2023-02-02T23:06:34.226Z,62.60
2023-02-02T23:09:06.936Z,62.80
2023-02-02T23:11:37.373Z,62.61
2023-02-02T23:14:08.795Z,62.98
2023-02-02T23:16:39.512Z,62.92
2023-02-02T23:19:09.836Z,62.58
2023-02-02T23:21:40.104Z,62.26
2023-02-02T23:24:11.051Z,62.07
2023-02-02T23:26:43.982Z,61.86
2023-02-02T23:29:14.328Z,62.06
2023-02-02T23:31:45.400Z,61.88
2023-02-02T23:34:15.871Z,61.35
2023-02-02T23:37:06.684Z,60.87
2023-02-02T23:39:37.746Z,60.94
2023-02-02T23:42:08.159Z,61.30
2023-02-02T23:44:39.750Z,60.97
2023-02-02T23:47:11.117Z,60.92
2023-02-02T23:49:41.945Z,61.09
2023-02-02T23:52:15.439Z,61.00
2023-02-02T23:54:47.816Z,61.03
2023-02-02T23:57:21.703Z,60.46
2023-02-02T23:59:52.351Z,60.49
